sensor_id;sensor_type;location;lat;lon;timestamp;P1;P2;P0
56360;PMS7003;42611;51.132;13.588;2022-10-22T00:02:01;46.2;37.0;
56360;PMS7003;42611;51.132;13.588;2022-10-22T00:07:01;46.7;38.0;
56360;PMS7003;42611;51.132;13.588;2022-10-22T00:12:01;46.6;38.0;
56360;PMS7003;42611;51.132;13.588;2022-10-22T00:17:02;46.9;38.3;
56360;PMS7003;42611;51.132;13.588;2022-10-22T00:22:01;47.0;38.7;
56360;PMS7003;42611;51.132;13.588;2022-10-22T00:27:02;46.5;38.3;
56360;PMS7003;42611;51.132;13.588;2022-10-22T00:32:03;47.8;38.4;
56360;PMS7003;42611;51.132;13.588;2022-10-22T00:37:01;48.9;39.0;
56360;PMS7003;42611;51.132;13.588;2022-10-22T00:42:01;49.2;39.1;
56360;PMS7003;42611;51.132;13.588;2022-10-22T00:47:01;48.7;38.8;
56360;PMS7003;42611;51.132;13.588;2022-10-22T00:52:01;47.6;38.6;
56360;PMS7003;42611;51.132;13.588;2022-10-22T00:57:01;47.8;39.3;
56360;PMS7003;42611;51.132;13.588;2022-10-22T01:02:01;47.2;39.4;
56360;PMS7003;42611;51.132;13.588;2022-10-22T01:07:02;47.6;39.6;
56360;PMS7003;42611;51.132;13.588;2022-10-22T01:12:07;49.7;40.9;
56360;PMS7003;42611;51.132;13.588;2022-10-22T01:17:05;53.0;42.4;
56360;PMS7003;42611;51.132;13.588;2022-10-22T01:22:04;52.9;42.3;
56360;PMS7003;42611;51.132;13.588;2022-10-22T01:27:14;52.5;41.6;
56360;PMS7003;42611;51.132;13.588;2022-10-22T01:32:04;52.2;41.4;
56360;PMS7003;42611;51.132;13.588;2022-10-22T01:37:01;51.6;41.2;
56360;PMS7003;42611;51.132;13.588;2022-10-22T01:42:01;51.0;41.0;
56360;PMS7003;42611;51.132;13.588;2022-10-22T01:47:04;50.0;40.4;
56360;PMS7003;42611;51.132;13.588;2022-10-22T01:52:22;50.3;40.8;
56360;PMS7003;42611;51.132;13.588;2022-10-22T01:57:23;51.0;41.5;
56360;PMS7003;42611;51.132;13.588;2022-10-22T02:02:04;50.3;41.2;
56360;PMS7003;42611;51.132;13.588;2022-10-22T02:07:02;49.8;41.0;
56360;PMS7003;42611;51.132;13.588;2022-10-22T02:12:02;50.9;41.6;
56360;PMS7003;42611;51.132;13.588;2022-10-22T02:17:01;51.9;42.2;
56360;PMS7003;42611;51.132;13.588;2022-10-22T02:22:02;51.6;42.3;
56360;PMS7003;42611;51.132;13.588;2022-10-22T02:27:19;51.4;41.9;
56360;PMS7003;42611;51.132;13.588;2022-10-22T02:32:02;52.0;42.3;
56360;PMS7003;42611;51.132;13.588;2022-10-22T02:37:01;50.8;41.0;
56360;PMS7003;42611;51.132;13.588;2022-10-22T02:42:01;50.7;40.5;
56360;PMS7003;42611;51.132;13.588;2022-10-22T02:47:02;51.1;40.7;
56360;PMS7003;42611;51.132;13.588;2022-10-22T02:52:02;52.3;41.4;
56360;PMS7003;42611;51.132;13.588;2022-10-22T02:57:01;51.6;41.0;
56360;PMS7003;42611;51.132;13.588;2022-10-22T03:02:01;52.2;42.0;
56360;PMS7003;42611;51.132;13.588;2022-10-22T03:07:01;52.0;42.1;
56360;PMS7003;42611;51.132;13.588;2022-10-22T03:17:01;51.9;42.0;
56360;PMS7003;42611;51.132;13.588;2022-10-22T03:22:03;52.3;42.6;
56360;PMS7003;42611;51.132;13.588;2022-10-22T03:27:01;53.8;43.3;
56360;PMS7003;42611;51.132;13.588;2022-10-22T03:32:02;54.0;43.4;
56360;PMS7003;42611;51.132;13.588;2022-10-22T03:37:02;54.9;44.1;
56360;PMS7003;42611;51.132;13.588;2022-10-22T03:42:02;55.2;44.2;
56360;PMS7003;42611;51.132;13.588;2022-10-22T03:47:03;55.8;44.4;
56360;PMS7003;42611;51.132;13.588;2022-10-22T03:52:17;55.6;44.4;
56360;PMS7003;42611;51.132;13.588;2022-10-22T03:57:02;56.3;44.9;
56360;PMS7003;42611;51.132;13.588;2022-10-22T04:02:01;56.0;44.6;
56360;PMS7003;42611;51.132;13.588;2022-10-22T04:07:02;55.6;44.2;
56360;PMS7003;42611;51.132;13.588;2022-10-22T04:17:01;54.2;42.7;
56360;PMS7003;42611;51.132;13.588;2022-10-22T04:22:01;52.2;41.6;
56360;PMS7003;42611;51.132;13.588;2022-10-22T04:27:02;50.5;40.5;
56360;PMS7003;42611;51.132;13.588;2022-10-22T04:32:01;50.7;40.5;
56360;PMS7003;42611;51.132;13.588;2022-10-22T04:37:02;50.1;40.4;
56360;PMS7003;42611;51.132;13.588;2022-10-22T04:42:02;50.7;41.0;
56360;PMS7003;42611;51.132;13.588;2022-10-22T04:47:01;52.1;41.9;
56360;PMS7003;42611;51.132;13.588;2022-10-22T04:52:01;54.0;42.7;
56360;PMS7003;42611;51.132;13.588;2022-10-22T04:57:01;52.9;42.4;
56360;PMS7003;42611;51.132;13.588;2022-10-22T05:02:01;53.2;42.2;
56360;PMS7003;42611;51.132;13.588;2022-10-22T05:07:02;53.0;42.0;
56360;PMS7003;42611;51.132;13.588;2022-10-22T05:12:01;52.4;41.6;
56360;PMS7003;42611;51.132;13.588;2022-10-22T05:17:01;51.7;41.3;
56360;PMS7003;42611;51.132;13.588;2022-10-22T05:22:02;51.8;41.0;
56360;PMS7003;42611;51.132;13.588;2022-10-22T05:27:02;51.7;40.9;
56360;PMS7003;42611;51.132;13.588;2022-10-22T05:32:01;53.0;41.6;
56360;PMS7003;42611;51.132;13.588;2022-10-22T05:37:02;53.6;41.9;
56360;PMS7003;42611;51.132;13.588;2022-10-22T05:42:02;54.1;42.2;
56360;PMS7003;42611;51.132;13.588;2022-10-22T05:47:01;53.5;42.3;
56360;PMS7003;42611;51.132;13.588;2022-10-22T05:52:01;54.1;43.0;
56360;PMS7003;42611;51.132;13.588;2022-10-22T05:57:01;53.0;42.7;
56360;PMS7003;42611;51.132;13.588;2022-10-22T06:02:02;52.5;42.5;
56360;PMS7003;42611;51.132;13.588;2022-10-22T06:07:01;52.4;42.4;
56360;PMS7003;42611;51.132;13.588;2022-10-22T06:12:02;52.2;41.3;
56360;PMS7003;42611;51.132;13.588;2022-10-22T06:17:01;51.0;40.4;
56360;PMS7003;42611;51.132;13.588;2022-10-22T06:22:02;50.7;40.1;
56360;PMS7003;42611;51.132;13.588;2022-10-22T06:27:02;50.9;40.1;
56360;PMS7003;42611;51.132;13.588;2022-10-22T06:32:01;49.9;39.6;
56360;PMS7003;42611;51.132;13.588;2022-10-22T06:37:02;50.7;40.6;
56360;PMS7003;42611;51.132;13.588;2022-10-22T06:42:01;51.7;41.0;
56360;PMS7003;42611;51.132;13.588;2022-10-22T06:47:01;51.3;40.9;
56360;PMS7003;42611;51.132;13.588;2022-10-22T06:52:01;50.8;40.8;
56360;PMS7003;42611;51.132;13.588;2022-10-22T06:57:01;51.4;40.6;
56360;PMS7003;42611;51.132;13.588;2022-10-22T07:02:01;51.2;41.1;
56360;PMS7003;42611;51.132;13.588;2022-10-22T07:07:01;49.8;40.6;
56360;PMS7003;42611;51.132;13.588;2022-10-22T07:12:01;50.0;40.6;
56360;PMS7003;42611;51.132;13.588;2022-10-22T07:17:01;50.3;40.6;
56360;PMS7003;42611;51.132;13.588;2022-10-22T07:27:02;51.1;41.5;
56360;PMS7003;42611;51.132;13.588;2022-10-22T07:32:01;52.3;41.9;
56360;PMS7003;42611;51.132;13.588;2022-10-22T07:37:01;52.8;41.9;
56360;PMS7003;42611;51.132;13.588;2022-10-22T07:42:01;52.4;41.6;
56360;PMS7003;42611;51.132;13.588;2022-10-22T07:47:01;52.3;41.6;
56360;PMS7003;42611;51.132;13.588;2022-10-22T07:52:02;51.6;41.1;
56360;PMS7003;42611;51.132;13.588;2022-10-22T07:57:01;50.9;40.7;
56360;PMS7003;42611;51.132;13.588;2022-10-22T08:02:02;50.2;40.6;
56360;PMS7003;42611;51.132;13.588;2022-10-22T08:07:02;49.5;40.6;
56360;PMS7003;42611;51.132;13.588;2022-10-22T08:12:01;48.6;39.9;
56360;PMS7003;42611;51.132;13.588;2022-10-22T08:17:01;48.1;39.4;
56360;PMS7003;42611;51.132;13.588;2022-10-22T08:22:02;47.5;38.8;
56360;PMS7003;42611;51.132;13.588;2022-10-22T08:27:02;46.6;38.0;
56360;PMS7003;42611;51.132;13.588;2022-10-22T08:32:01;47.1;38.0;
56360;PMS7003;42611;51.132;13.588;2022-10-22T08:37:02;49.6;39.4;
56360;PMS7003;42611;51.132;13.588;2022-10-22T08:42:27;49.0;39.1;
56360;PMS7003;42611;51.132;13.588;2022-10-22T08:47:09;49.2;39.6;
56360;PMS7003;42611;51.132;13.588;2022-10-22T08:52:02;45.5;36.4;
56360;PMS7003;42611;51.132;13.588;2022-10-22T08:57:23;38.5;31.2;
56360;PMS7003;42611;51.132;13.588;2022-10-22T09:02:01;29.5;24.5;
56360;PMS7003;42611;51.132;13.588;2022-10-22T09:07:01;22.1;18.6;
56360;PMS7003;42611;51.132;13.588;2022-10-22T09:12:02;14.0;12.2;
56360;PMS7003;42611;51.132;13.588;2022-10-22T09:17:11;9.4;8.8;
56360;PMS7003;42611;51.132;13.588;2022-10-22T09:22:23;8.2;6.5;
56360;PMS7003;42611;51.132;13.588;2022-10-22T09:27:03;6.1;5.0;
56360;PMS7003;42611;51.132;13.588;2022-10-22T09:32:02;5.0;4.0;
56360;PMS7003;42611;51.132;13.588;2022-10-22T09:37:07;4.4;3.3;
56360;PMS7003;42611;51.132;13.588;2022-10-22T09:42:01;4.2;3.1;
56360;PMS7003;42611;51.132;13.588;2022-10-22T09:47:04;2.8;2.6;
56360;PMS7003;42611;51.132;13.588;2022-10-22T09:52:02;2.2;2.1;
56360;PMS7003;42611;51.132;13.588;2022-10-22T09:57:04;2.4;2.3;
56360;PMS7003;42611;51.132;13.588;2022-10-22T10:02:18;1.7;1.6;
56360;PMS7003;42611;51.132;13.588;2022-10-22T10:07:02;1.2;1.1;
56360;PMS7003;42611;51.132;13.588;2022-10-22T10:17:04;0.7;0.7;
56360;PMS7003;42611;51.132;13.588;2022-10-22T10:32:06;0.2;0.2;
56360;PMS7003;42611;51.132;13.588;2022-10-22T10:47:20;0.1;0.1;
56360;PMS7003;42611;51.132;13.588;2022-10-22T10:57:03;0.2;0.2;
56360;PMS7003;42611;51.132;13.588;2022-10-22T11:07:29;1.0;0.6;
56360;PMS7003;42611;51.132;13.588;2022-10-22T11:12:04;1.3;0.9;
56360;PMS7003;42611;51.132;13.588;2022-10-22T11:17:17;1.5;1.1;
56360;PMS7003;42611;51.132;13.588;2022-10-22T11:22:03;1.7;1.2;
56360;PMS7003;42611;51.132;13.588;2022-10-22T11:27:10;1.5;0.9;
56360;PMS7003;42611;51.132;13.588;2022-10-22T11:32:01;1.0;0.8;
56360;PMS7003;42611;51.132;13.588;2022-10-22T11:42:04;0.9;0.6;
56360;PMS7003;42611;51.132;13.588;2022-10-22T11:47:19;0.6;0.6;
56360;PMS7003;42611;51.132;13.588;2022-10-22T11:52:40;0.8;0.8;
56360;PMS7003;42611;51.132;13.588;2022-10-22T11:57:14;0.9;0.8;
56360;PMS7003;42611;51.132;13.588;2022-10-22T12:07:02;1.0;0.8;
56360;PMS7003;42611;51.132;13.588;2022-10-22T12:17:06;0.8;0.6;
56360;PMS7003;42611;51.132;13.588;2022-10-22T12:22:10;0.6;0.4;
56360;PMS7003;42611;51.132;13.588;2022-10-22T12:27:02;0.4;0.2;
56360;PMS7003;42611;51.132;13.588;2022-10-22T12:32:02;0.6;0.3;
56360;PMS7003;42611;51.132;13.588;2022-10-22T12:37:03;0.8;0.3;
56360;PMS7003;42611;51.132;13.588;2022-10-22T12:47:02;1.0;0.4;
56360;PMS7003;42611;51.132;13.588;2022-10-22T12:52:02;0.7;0.4;
56360;PMS7003;42611;51.132;13.588;2022-10-22T12:58:03;0.4;0.0;
56360;PMS7003;42611;51.132;13.588;2022-10-22T13:03:04;0.2;0.0;
56360;PMS7003;42611;51.132;13.588;2022-10-22T13:18:04;0.2;0.2;
56360;PMS7003;42611;51.132;13.588;2022-10-22T13:23:03;0.4;0.4;
56360;PMS7003;42611;51.132;13.588;2022-10-22T13:28:17;0.6;0.5;
56360;PMS7003;42611;51.132;13.588;2022-10-22T13:33:03;1.0;0.6;
56360;PMS7003;42611;51.132;13.588;2022-10-22T13:48:02;0.8;0.5;
56360;PMS7003;42611;51.132;13.588;2022-10-22T13:58:05;0.6;0.4;
56360;PMS7003;42611;51.132;13.588;2022-10-22T14:03:02;0.8;0.6;
56360;PMS7003;42611;51.132;13.588;2022-10-22T14:13:01;1.2;1.0;
56360;PMS7003;42611;51.132;13.588;2022-10-22T14:28:01;1.2;1.0;
56360;PMS7003;42611;51.132;13.588;2022-10-22T14:33:04;1.0;0.8;
56360;PMS7003;42611;51.132;13.588;2022-10-22T14:38:01;0.8;0.7;
56360;PMS7003;42611;51.132;13.588;2022-10-22T14:43:01;1.0;1.0;
56360;PMS7003;42611;51.132;13.588;2022-10-22T14:48:01;0.8;0.8;
56360;PMS7003;42611;51.132;13.588;2022-10-22T15:03:04;0.6;0.6;
56360;PMS7003;42611;51.132;13.588;2022-10-22T15:08:01;0.2;0.2;
56360;PMS7003;42611;51.132;13.588;2022-10-22T15:33:03;0.2;0.2;
56360;PMS7003;42611;51.132;13.588;2022-10-22T15:38:02;0.4;0.4;
56360;PMS7003;42611;51.132;13.588;2022-10-22T15:43:02;1.1;1.0;
56360;PMS7003;42611;51.132;13.588;2022-10-22T15:48:02;1.2;1.2;
56360;PMS7003;42611;51.132;13.588;2022-10-22T15:53:03;1.6;1.6;
56360;PMS7003;42611;51.132;13.588;2022-10-22T16:03:02;1.9;1.6;
56360;PMS7003;42611;51.132;13.588;2022-10-22T16:08:01;1.8;1.2;
56360;PMS7003;42611;51.132;13.588;2022-10-22T16:13:01;2.3;1.4;
56360;PMS7003;42611;51.132;13.588;2022-10-22T16:18:01;3.1;2.1;
56360;PMS7003;42611;51.132;13.588;2022-10-22T16:23:02;4.0;2.7;
56360;PMS7003;42611;51.132;13.588;2022-10-22T16:28:01;4.6;3.5;
56360;PMS7003;42611;51.132;13.588;2022-10-22T16:33:05;5.5;4.9;
56360;PMS7003;42611;51.132;13.588;2022-10-22T16:38:02;6.7;6.0;
56360;PMS7003;42611;51.132;13.588;2022-10-22T16:43:02;7.0;6.4;
56360;PMS7003;42611;51.132;13.588;2022-10-22T16:48:01;7.8;7.1;
56360;PMS7003;42611;51.132;13.588;2022-10-22T16:53:02;8.4;7.7;
56360;PMS7003;42611;51.132;13.588;2022-10-22T16:58:02;8.7;8.1;
56360;PMS7003;42611;51.132;13.588;2022-10-22T17:03:02;9.1;8.7;
56360;PMS7003;42611;51.132;13.588;2022-10-22T17:08:01;10.5;10.1;
56360;PMS7003;42611;51.132;13.588;2022-10-22T17:13:02;11.8;11.5;
56360;PMS7003;42611;51.132;13.588;2022-10-22T17:18:01;12.5;12.2;
56360;PMS7003;42611;51.132;13.588;2022-10-22T17:23:01;13.0;12.7;
56360;PMS7003;42611;51.132;13.588;2022-10-22T17:28:02;12.0;11.8;
56360;PMS7003;42611;51.132;13.588;2022-10-22T17:33:01;12.2;11.9;
56360;PMS7003;42611;51.132;13.588;2022-10-22T17:38:01;14.6;13.4;
56360;PMS7003;42611;51.132;13.588;2022-10-22T17:43:01;17.6;16.2;
56360;PMS7003;42611;51.132;13.588;2022-10-22T17:48:01;20.9;18.8;
56360;PMS7003;42611;51.132;13.588;2022-10-22T17:53:01;23.6;21.5;
56360;PMS7003;42611;51.132;13.588;2022-10-22T17:58:01;24.6;22.3;
56360;PMS7003;42611;51.132;13.588;2022-10-22T18:03:01;24.4;22.8;
56360;PMS7003;42611;51.132;13.588;2022-10-22T18:08:08;23.3;21.6;
56360;PMS7003;42611;51.132;13.588;2022-10-22T18:13:03;21.2;20.1;
56360;PMS7003;42611;51.132;13.588;2022-10-22T18:18:02;20.8;19.5;
56360;PMS7003;42611;51.132;13.588;2022-10-22T18:23:01;20.6;19.4;
56360;PMS7003;42611;51.132;13.588;2022-10-22T18:28:02;19.2;18.3;
56360;PMS7003;42611;51.132;13.588;2022-10-22T18:33:02;17.8;17.2;
56360;PMS7003;42611;51.132;13.588;2022-10-22T18:38:01;16.3;15.4;
56360;PMS7003;42611;51.132;13.588;2022-10-22T18:43:02;15.8;14.9;
56360;PMS7003;42611;51.132;13.588;2022-10-22T18:48:02;15.0;13.7;
56360;PMS7003;42611;51.132;13.588;2022-10-22T18:53:02;13.9;12.7;
56360;PMS7003;42611;51.132;13.588;2022-10-22T18:58:02;13.8;12.7;
56360;PMS7003;42611;51.132;13.588;2022-10-22T19:03:02;16.2;15.1;
56360;PMS7003;42611;51.132;13.588;2022-10-22T19:08:02;15.8;15.1;
56360;PMS7003;42611;51.132;13.588;2022-10-22T19:13:02;15.9;15.5;
56360;PMS7003;42611;51.132;13.588;2022-10-22T19:18:01;17.1;16.4;
56360;PMS7003;42611;51.132;13.588;2022-10-22T19:23:01;17.2;16.4;
56360;PMS7003;42611;51.132;13.588;2022-10-22T19:28:01;15.2;14.5;
56360;PMS7003;42611;51.132;13.588;2022-10-22T19:33:01;15.1;14.4;
56360;PMS7003;42611;51.132;13.588;2022-10-22T19:38:01;14.6;13.8;
56360;PMS7003;42611;51.132;13.588;2022-10-22T19:43:01;14.0;13.4;
56360;PMS7003;42611;51.132;13.588;2022-10-22T19:48:01;13.9;13.0;
56360;PMS7003;42611;51.132;13.588;2022-10-22T19:53:01;14.2;13.4;
56360;PMS7003;42611;51.132;13.588;2022-10-22T19:58:01;14.1;13.2;
56360;PMS7003;42611;51.132;13.588;2022-10-22T20:03:02;13.8;13.0;
56360;PMS7003;42611;51.132;13.588;2022-10-22T20:08:02;12.9;12.4;
56360;PMS7003;42611;51.132;13.588;2022-10-22T20:13:01;12.3;12.1;
56360;PMS7003;42611;51.132;13.588;2022-10-22T20:18:01;12.2;11.8;
56360;PMS7003;42611;51.132;13.588;2022-10-22T20:33:01;11.8;11.5;
56360;PMS7003;42611;51.132;13.588;2022-10-22T20:43:01;11.1;11.1;
56360;PMS7003;42611;51.132;13.588;2022-10-22T20:48:04;10.2;10.2;
56360;PMS7003;42611;51.132;13.588;2022-10-22T20:53:01;9.6;9.6;
56360;PMS7003;42611;51.132;13.588;2022-10-22T20:58:01;9.2;9.2;
56360;PMS7003;42611;51.132;13.588;2022-10-22T21:03:01;9.1;9.0;
56360;PMS7003;42611;51.132;13.588;2022-10-22T21:08:01;9.5;9.4;
56360;PMS7003;42611;51.132;13.588;2022-10-22T21:13:01;10.1;10.0;
56360;PMS7003;42611;51.132;13.588;2022-10-22T21:18:01;10.4;10.3;
56360;PMS7003;42611;51.132;13.588;2022-10-22T21:23:01;10.5;10.4;
56360;PMS7003;42611;51.132;13.588;2022-10-22T21:28:01;11.0;10.4;
56360;PMS7003;42611;51.132;13.588;2022-10-22T21:33:02;11.2;10.6;
56360;PMS7003;42611;51.132;13.588;2022-10-22T21:38:01;10.5;9.9;
56360;PMS7003;42611;51.132;13.588;2022-10-22T21:43:01;10.6;10.0;
56360;PMS7003;42611;51.132;13.588;2022-10-22T21:48:02;11.8;10.3;
56360;PMS7003;42611;51.132;13.588;2022-10-22T21:53:02;11.4;10.2;
56360;PMS7003;42611;51.132;13.588;2022-10-22T21:58:01;11.5;10.1;
56360;PMS7003;42611;51.132;13.588;2022-10-22T22:03:01;12.0;10.3;
56360;PMS7003;42611;51.132;13.588;2022-10-22T22:08:01;11.8;10.1;
56360;PMS7003;42611;51.132;13.588;2022-10-22T22:13:01;11.2;10.1;
56360;PMS7003;42611;51.132;13.588;2022-10-22T22:18:01;11.1;10.2;
56360;PMS7003;42611;51.132;13.588;2022-10-22T22:23:01;10.7;10.0;
56360;PMS7003;42611;51.132;13.588;2022-10-22T22:28:02;10.3;9.8;
56360;PMS7003;42611;51.132;13.588;2022-10-22T22:33:01;10.6;9.9;
56360;PMS7003;42611;51.132;13.588;2022-10-22T22:38:02;9.8;9.3;
56360;PMS7003;42611;51.132;13.588;2022-10-22T22:43:01;9.7;8.9;
56360;PMS7003;42611;51.132;13.588;2022-10-22T22:48:01;9.6;8.6;
56360;PMS7003;42611;51.132;13.588;2022-10-22T22:53:01;9.3;8.5;
56360;PMS7003;42611;51.132;13.588;2022-10-22T22:58:01;8.8;8.2;
56360;PMS7003;42611;51.132;13.588;2022-10-22T23:03:02;9.4;8.8;
56360;PMS7003;42611;51.132;13.588;2022-10-22T23:08:01;9.0;8.7;
56360;PMS7003;42611;51.132;13.588;2022-10-22T23:13:01;8.8;8.5;
56360;PMS7003;42611;51.132;13.588;2022-10-22T23:18:01;8.6;8.4;
56360;PMS7003;42611;51.132;13.588;2022-10-22T23:23:01;8.4;8.2;
56360;PMS7003;42611;51.132;13.588;2022-10-22T23:28:01;9.2;8.2;
56360;PMS7003;42611;51.132;13.588;2022-10-22T23:33:01;10.1;8.8;
56360;PMS7003;42611;51.132;13.588;2022-10-22T23:38:01;9.9;8.7;
56360;PMS7003;42611;51.132;13.588;2022-10-22T23:43:02;10.6;9.2;
56360;PMS7003;42611;51.132;13.588;2022-10-22T23:48:01;11.4;9.6;
56360;PMS7003;42611;51.132;13.588;2022-10-22T23:53:01;10.8;9.5;
56360;PMS7003;42611;51.132;13.588;2022-10-22T23:58:02;10.1;9.0;
